createdAt,value
2023-05-01T00:01:16.584Z,62.77
2023-05-01T00:03:43.484Z,62.23
2023-05-01T00:06:10.313Z,62.45
2023-05-01T00:08:37.030Z,62.62
2023-05-01T00:11:04.643Z,62.47
2023-05-01T00:13:32.376Z,62.20
2023-05-01T00:15:59.177Z,62.62
2023-05-01T00:18:25.983Z,62.60
2023-05-01T00:20:52.598Z,62.28
2023-05-01T00:23:19.287Z,61.66
2023-05-01T00:25:45.954Z,62.08
2023-05-01T00:28:12.896Z,62.74
2023-05-01T00:30:39.507Z,62.64
2023-05-01T00:33:06.213Z,62.17
2023-05-01T00:35:32.932Z,62.45
2023-05-01T00:37:59.570Z,61.75
2023-05-01T00:40:26.171Z,62.73
2023-05-01T00:42:52.815Z,62.14
2023-05-01T00:45:19.705Z,62.22
2023-05-01T00:47:47.073Z,62.84
2023-05-01T00:50:14.229Z,62.32
2023-05-01T00:52:41.115Z,62.98
2023-05-01T00:55:08.451Z,63.24
2023-05-01T00:57:35.112Z,63.14
2023-05-01T01:00:01.771Z,63.12
2023-05-01T01:02:28.521Z,62.23
2023-05-01T01:04:55.452Z,62.43
2023-05-01T01:07:45.703Z,62.43
2023-05-01T01:10:35.496Z,63.20
2023-05-01T01:13:09.321Z,62.62
2023-05-01T01:15:44.303Z,62.96
2023-05-01T01:18:23.659Z,62.39
2023-05-01T01:20:58.775Z,62.58
2023-05-01T01:23:37.097Z,62.48
2023-05-01T01:26:13.904Z,62.81
2023-05-01T01:29:02.030Z,62.40
2023-05-01T01:31:53.820Z,62.06
2023-05-01T01:34:41.945Z,62.11
2023-05-01T01:37:17.446Z,61.69
2023-05-01T01:39:52.994Z,61.93
2023-05-01T01:42:25.392Z,61.25
2023-05-01T01:44:54.549Z,61.28
2023-05-01T01:47:24.616Z,61.16
2023-05-01T01:49:53.861Z,61.20
2023-05-01T01:52:24.004Z,62.29
2023-05-01T01:54:54.997Z,60.84
2023-05-01T01:57:23.836Z,60.93
2023-05-01T01:59:51.496Z,61.18
2023-05-01T02:02:20.651Z,60.83
2023-05-01T02:04:49.538Z,60.81
2023-05-01T02:07:17.610Z,61.88
2023-05-01T02:09:46.250Z,60.45
2023-05-01T02:12:15.763Z,60.86
2023-05-01T02:14:44.399Z,60.35
2023-05-01T02:17:11.732Z,60.78
2023-05-01T02:19:39.155Z,60.91
2023-05-01T02:22:07.389Z,60.60
2023-05-01T02:24:35.944Z,59.80
2023-05-01T02:27:15.612Z,60.48
2023-05-01T02:29:42.377Z,60.04
2023-05-01T02:32:09.179Z,60.19
2023-05-01T02:34:35.922Z,60.55
2023-05-01T02:37:08.082Z,60.59
2023-05-01T02:39:35.215Z,59.96
2023-05-01T02:42:03.412Z,59.68
2023-05-01T02:44:37.670Z,60.22
2023-05-01T02:47:07.195Z,59.73
2023-05-01T02:49:34.600Z,60.87
2023-05-01T02:52:02.835Z,59.33
2023-05-01T02:54:30.981Z,59.48
2023-05-01T02:56:57.631Z,59.62
2023-05-01T02:59:24.372Z,58.49
2023-05-01T03:01:51.508Z,57.68
2023-05-01T03:04:18.186Z,58.95
2023-05-01T03:06:45.095Z,58.38
2023-05-01T03:09:11.868Z,58.28
2023-05-01T03:11:38.529Z,57.31
2023-05-01T03:14:05.168Z,58.34
2023-05-01T03:16:32.052Z,57.79
2023-05-01T03:18:58.761Z,57.29
2023-05-01T03:21:25.443Z,56.91
2023-05-01T03:23:52.070Z,57.71
2023-05-01T03:26:18.650Z,58.18
2023-05-01T03:28:48.169Z,58.66
2023-05-01T03:31:14.794Z,57.02
2023-05-01T03:33:41.413Z,57.57
2023-05-01T03:36:08.181Z,56.70
2023-05-01T03:38:34.797Z,56.93
2023-05-01T03:41:01.456Z,57.13
2023-05-01T03:43:30.649Z,57.48
2023-05-01T03:45:57.619Z,57.04
2023-05-01T03:48:24.570Z,56.73
2023-05-01T03:50:54.211Z,57.40
2023-05-01T03:53:20.966Z,56.75
2023-05-01T03:55:47.656Z,56.21
2023-05-01T03:58:14.417Z,56.97
2023-05-01T04:00:41.006Z,56.53
2023-05-01T04:03:07.815Z,56.06
2023-05-01T04:05:34.689Z,56.47
2023-05-01T04:08:01.272Z,55.43
2023-05-01T04:10:27.945Z,56.47
2023-05-01T04:12:54.727Z,56.53
2023-05-01T04:15:21.356Z,55.32
2023-05-01T04:17:48.379Z,56.19
2023-05-01T04:20:15.305Z,55.55
2023-05-01T04:22:41.939Z,55.58
2023-05-01T04:25:09.069Z,55.25
2023-05-01T04:27:35.719Z,54.49
2023-05-01T04:30:02.415Z,54.85
2023-05-01T04:32:29.092Z,55.43
2023-05-01T04:34:55.925Z,55.14
2023-05-01T04:37:22.561Z,53.72
2023-05-01T04:39:49.237Z,54.25
2023-05-01T04:42:15.880Z,54.07
2023-05-01T04:44:42.502Z,53.71
2023-05-01T04:47:09.413Z,52.33
2023-05-01T04:49:36.189Z,52.27
2023-05-01T04:52:03.119Z,51.13
2023-05-01T04:54:29.743Z,51.30
2023-05-01T04:56:56.380Z,50.56
2023-05-01T04:59:22.992Z,49.58
2023-05-01T05:01:49.687Z,49.86
2023-05-01T05:04:16.425Z,49.44
2023-05-01T05:06:43.193Z,48.74
2023-05-01T05:09:09.808Z,49.06
2023-05-01T05:11:36.457Z,48.59
2023-05-01T05:14:03.100Z,48.87
2023-05-01T05:16:30.060Z,48.48
2023-05-01T05:18:56.747Z,48.13
2023-05-01T05:21:23.515Z,47.66
2023-05-01T05:23:50.281Z,48.47
2023-05-01T05:26:17.023Z,46.15
2023-05-01T05:28:43.732Z,46.14
2023-05-01T05:31:10.373Z,46.18
2023-05-01T05:33:37.148Z,45.91
2023-05-01T05:36:03.943Z,45.57
2023-05-01T05:38:30.628Z,45.47
2023-05-01T05:40:57.301Z,44.27
2023-05-01T05:43:26.025Z,41.67
2023-05-01T05:45:58.115Z,42.66
2023-05-01T05:48:25.283Z,42.41
2023-05-01T05:50:51.908Z,40.11
2023-05-01T05:53:23.584Z,41.16
2023-05-01T05:55:51.721Z,41.73
2023-05-01T05:58:19.588Z,38.75
2023-05-01T06:00:47.454Z,38.18
2023-05-01T06:03:14.823Z,38.94
2023-05-01T06:05:42.726Z,38.24
2023-05-01T06:08:09.724Z,38.00
2023-05-01T06:10:36.791Z,38.25
2023-05-01T06:13:14.004Z,38.44
2023-05-01T06:15:41.956Z,37.98
2023-05-01T06:18:08.955Z,38.74
2023-05-01T06:20:36.301Z,38.22
2023-05-01T06:23:02.951Z,36.88
2023-05-01T06:25:29.626Z,36.47
2023-05-01T06:27:56.324Z,37.50
2023-05-01T06:30:22.949Z,37.08
2023-05-01T06:32:49.743Z,36.29
2023-05-01T06:35:19.274Z,36.66
2023-05-01T06:37:46.139Z,37.15
2023-05-01T06:40:12.983Z,35.45
2023-05-01T06:42:40.403Z,36.30
2023-05-01T06:45:08.166Z,35.36
2023-05-01T06:47:34.976Z,34.49
2023-05-01T06:50:05.078Z,36.27
2023-05-01T06:52:32.738Z,35.40
2023-05-01T06:54:59.336Z,34.24
2023-05-01T06:57:26.037Z,33.86
2023-05-01T06:59:52.711Z,33.87
2023-05-01T07:02:19.601Z,34.17
2023-05-01T07:04:49.127Z,34.43
2023-05-01T07:07:15.756Z,34.68
2023-05-01T07:09:42.446Z,35.09
2023-05-01T07:12:09.296Z,34.63
2023-05-01T07:14:36.180Z,34.30
2023-05-01T07:17:04.858Z,35.59
2023-05-01T07:19:31.539Z,35.16
2023-05-01T07:21:58.198Z,34.64
2023-05-01T07:24:24.960Z,35.19
2023-05-01T07:26:51.648Z,35.80
2023-05-01T07:29:18.347Z,36.52
2023-05-01T07:31:46.487Z,36.66
2023-05-01T07:34:13.166Z,37.26
2023-05-01T07:36:39.887Z,35.27
2023-05-01T07:39:06.714Z,36.32
2023-05-01T07:41:33.392Z,36.70
2023-05-01T07:44:00.110Z,35.99
2023-05-01T07:46:26.929Z,36.64
2023-05-01T07:48:53.615Z,36.42
2023-05-01T07:51:20.301Z,36.69
2023-05-01T07:53:47.078Z,37.41
2023-05-01T07:56:13.771Z,36.37
2023-05-01T07:58:40.461Z,36.42
2023-05-01T08:01:07.203Z,35.81
2023-05-01T08:03:34.066Z,35.55
2023-05-01T08:06:01.021Z,35.52
2023-05-01T08:08:27.702Z,35.28
2023-05-01T08:10:54.427Z,34.82
2023-05-01T08:13:21.078Z,34.55
2023-05-01T08:15:48.155Z,35.44
2023-05-01T08:18:15.295Z,36.21
2023-05-01T08:20:41.872Z,36.86
2023-05-01T08:23:08.513Z,37.09
2023-05-01T08:25:35.202Z,35.60
2023-05-01T08:28:02.014Z,36.14
2023-05-01T08:30:28.750Z,35.96
2023-05-01T08:32:55.387Z,36.66
2023-05-01T08:35:22.022Z,37.07
2023-05-01T08:37:48.748Z,36.35
2023-05-01T08:40:15.579Z,36.73
2023-05-01T08:42:42.790Z,36.41
2023-05-01T08:45:10.589Z,36.52
2023-05-01T08:47:39.254Z,37.33
2023-05-01T08:50:17.566Z,38.21
2023-05-01T08:52:44.676Z,36.56
2023-05-01T08:55:15.263Z,35.28
2023-05-01T08:57:46.047Z,37.05
2023-05-01T09:00:18.586Z,37.04
2023-05-01T09:02:48.556Z,36.81
2023-05-01T09:05:20.132Z,37.54
2023-05-01T09:07:48.473Z,37.19
2023-05-01T09:10:18.731Z,36.86
2023-05-01T09:12:49.333Z,36.38
2023-05-01T09:15:16.127Z,36.52
2023-05-01T09:17:44.343Z,36.17
2023-05-01T09:20:11.601Z,36.04
2023-05-01T09:22:40.850Z,35.87
2023-05-01T09:25:07.927Z,35.12
2023-05-01T09:27:35.558Z,36.06
2023-05-01T09:30:02.239Z,35.35
2023-05-01T09:32:29.253Z,37.75
2023-05-01T09:35:09.925Z,36.98
2023-05-01T09:37:36.889Z,36.58
2023-05-01T09:40:14.651Z,35.23
2023-05-01T09:42:50.511Z,34.67
2023-05-01T09:45:18.044Z,34.34
2023-05-01T09:47:48.664Z,34.94
2023-05-01T09:50:34.773Z,34.29
2023-05-01T09:53:02.316Z,34.84
2023-05-01T09:55:28.991Z,34.40
2023-05-01T09:57:55.696Z,34.59
2023-05-01T10:00:22.672Z,35.56
2023-05-01T10:02:50.753Z,35.36
2023-05-01T10:05:18.982Z,33.74
2023-05-01T10:08:14.662Z,34.79
2023-05-01T10:10:42.127Z,33.32
2023-05-01T10:13:16.612Z,33.78
2023-05-01T10:15:45.029Z,33.51
2023-05-01T10:18:11.832Z,32.73
2023-05-01T10:20:38.707Z,32.89
2023-05-01T10:23:05.612Z,32.17
2023-05-01T10:25:33.035Z,31.89
2023-05-01T10:28:03.055Z,30.83
2023-05-01T10:30:30.438Z,31.25
2023-05-01T10:32:59.142Z,33.42
2023-05-01T10:35:30.034Z,31.49
2023-05-01T10:38:07.739Z,31.91
2023-05-01T10:40:40.226Z,32.38
2023-05-01T10:43:17.476Z,31.58
2023-05-01T10:45:45.636Z,31.85
2023-05-01T10:48:12.876Z,31.39
2023-05-01T10:51:11.481Z,31.08
2023-05-01T10:53:40.604Z,30.86
2023-05-01T10:56:22.379Z,30.08
2023-05-01T10:58:58.072Z,30.46
2023-05-01T11:01:28.674Z,29.73
2023-05-01T11:03:56.091Z,29.73
2023-05-01T11:06:23.138Z,29.04
2023-05-01T11:08:50.047Z,28.09
2023-05-01T11:11:19.721Z,27.40
2023-05-01T11:14:02.701Z,26.85
2023-05-01T11:16:38.566Z,27.09
2023-05-01T11:19:32.012Z,28.13
2023-05-01T11:21:58.923Z,28.80
2023-05-01T11:24:36.994Z,28.51
2023-05-01T11:27:04.281Z,29.64
2023-05-01T11:29:32.075Z,30.61
2023-05-01T11:32:00.362Z,28.68
2023-05-01T11:34:27.208Z,30.67
2023-05-01T11:36:54.122Z,30.72
2023-05-01T11:39:20.954Z,29.42
2023-05-01T11:41:47.713Z,29.72
2023-05-01T11:44:17.217Z,30.40
2023-05-01T11:46:44.408Z,28.97
2023-05-01T11:49:11.672Z,30.79
2023-05-01T11:51:38.662Z,29.25
2023-05-01T11:54:07.913Z,29.98
2023-05-01T11:56:35.723Z,29.32
2023-05-01T11:59:16.743Z,28.38
2023-05-01T12:01:47.266Z,28.66
2023-05-01T12:04:24.413Z,29.32
2023-05-01T12:06:51.549Z,28.65
2023-05-01T12:09:20.655Z,28.60
2023-05-01T12:11:51.907Z,28.88
2023-05-01T12:14:20.169Z,28.84
2023-05-01T12:16:47.486Z,28.43
2023-05-01T12:19:15.762Z,28.85
2023-05-01T12:21:42.633Z,28.83
2023-05-01T12:24:14.248Z,30.77
2023-05-01T12:26:44.022Z,28.01
2023-05-01T12:29:11.292Z,28.83
2023-05-01T12:31:46.870Z,29.25
2023-05-01T12:34:15.817Z,28.80
2023-05-01T12:36:42.574Z,28.21
2023-05-01T12:39:11.301Z,28.90
2023-05-01T12:41:42.416Z,29.29
2023-05-01T12:44:31.222Z,28.66
2023-05-01T12:47:02.833Z,28.43
2023-05-01T12:49:33.224Z,29.18
2023-05-01T12:52:03.602Z,28.62
2023-05-01T12:54:32.912Z,29.80
2023-05-01T12:57:13.832Z,29.67
2023-05-01T12:59:42.441Z,28.47
2023-05-01T13:02:14.407Z,29.60
2023-05-01T13:04:43.072Z,29.12
2023-05-01T13:07:17.804Z,28.55
2023-05-01T13:10:10.855Z,27.86
2023-05-01T13:12:44.780Z,29.00
2023-05-01T13:15:24.155Z,29.03
2023-05-01T13:17:50.949Z,29.84
2023-05-01T13:20:25.992Z,28.13
2023-05-01T13:22:52.783Z,27.78
2023-05-01T13:25:20.233Z,28.83
2023-05-01T13:27:51.386Z,28.31
2023-05-01T13:30:31.783Z,29.16
2023-05-01T13:33:00.533Z,29.09
2023-05-01T13:35:27.697Z,29.18
2023-05-01T13:37:54.921Z,29.35
2023-05-01T13:40:24.960Z,29.07
2023-05-01T13:42:52.576Z,29.27
2023-05-01T13:45:25.914Z,29.19
2023-05-01T13:47:54.176Z,28.54
2023-05-01T13:50:21.191Z,28.69
2023-05-01T13:52:47.945Z,28.17
2023-05-01T13:55:14.839Z,29.46
2023-05-01T13:57:42.079Z,29.25
2023-05-01T14:00:13.162Z,28.93
2023-05-01T14:02:45.158Z,28.35
2023-05-01T14:05:11.951Z,28.56
2023-05-01T14:07:56.502Z,28.60
2023-05-01T14:10:27.760Z,29.10
2023-05-01T14:12:58.675Z,28.55
2023-05-01T14:15:25.787Z,28.92
2023-05-01T14:17:52.556Z,28.80
2023-05-01T14:20:19.458Z,28.14
2023-05-01T14:22:49.540Z,27.69
2023-05-01T14:25:25.334Z,27.88
2023-05-01T14:27:56.138Z,27.64
2023-05-01T14:30:30.689Z,26.96
2023-05-01T14:32:57.410Z,27.77
2023-05-01T14:35:24.873Z,27.08
2023-05-01T14:37:51.562Z,27.69
2023-05-01T14:40:21.433Z,28.56
2023-05-01T14:42:48.036Z,27.47
2023-05-01T14:45:15.980Z,27.35
2023-05-01T14:47:45.718Z,27.67
2023-05-01T14:50:18.323Z,29.09
2023-05-01T14:52:45.328Z,29.28
2023-05-01T14:55:12.121Z,28.18
2023-05-01T14:57:39.107Z,28.32
2023-05-01T15:00:06.220Z,28.38
2023-05-01T15:02:33.187Z,27.22
2023-05-01T15:05:00.650Z,27.52
2023-05-01T15:07:27.524Z,26.68
2023-05-01T15:09:54.194Z,27.21
2023-05-01T15:12:20.814Z,26.86
2023-05-01T15:14:47.463Z,26.95
2023-05-01T15:17:14.083Z,27.61
2023-05-01T15:19:40.718Z,27.37
2023-05-01T15:22:07.390Z,26.43
2023-05-01T15:24:34.056Z,27.49
2023-05-01T15:27:03.801Z,27.54
2023-05-01T15:29:31.814Z,27.40
2023-05-01T15:32:10.793Z,27.27
2023-05-01T15:34:38.937Z,26.26
2023-05-01T15:37:05.858Z,27.62
2023-05-01T15:39:33.792Z,27.39
2023-05-01T15:42:00.598Z,27.81
2023-05-01T15:44:27.273Z,27.14
2023-05-01T15:46:54.004Z,27.82
2023-05-01T15:51:47.314Z,27.60
2023-05-01T15:54:14.108Z,26.88
2023-05-01T15:56:40.785Z,27.42
2023-05-01T15:59:07.847Z,27.46
2023-05-01T16:01:35.538Z,26.60
2023-05-01T16:04:03.701Z,27.74
2023-05-01T16:06:34.978Z,28.17
2023-05-01T16:09:02.421Z,27.62
2023-05-01T16:11:30.622Z,28.98
2023-05-01T16:14:00.845Z,28.02
2023-05-01T16:16:29.083Z,28.88
2023-05-01T16:18:59.603Z,28.18
2023-05-01T16:21:27.142Z,27.72
2023-05-01T16:23:57.404Z,28.21
2023-05-01T16:26:29.194Z,27.58
2023-05-01T16:29:00.189Z,28.36
2023-05-01T16:31:28.015Z,30.27
2023-05-01T16:33:55.027Z,30.58
2023-05-01T16:36:21.746Z,30.81
2023-05-01T16:38:48.370Z,30.83
2023-05-01T16:41:16.350Z,31.78
2023-05-01T16:43:44.378Z,32.33
2023-05-01T16:46:13.229Z,31.84
2023-05-01T16:48:42.018Z,32.52
2023-05-01T16:51:09.724Z,32.90
2023-05-01T16:53:36.458Z,32.72
2023-05-01T16:56:06.592Z,33.10
2023-05-01T16:58:36.488Z,32.90
2023-05-01T17:01:03.105Z,33.18
2023-05-01T17:03:29.730Z,33.22
2023-05-01T17:05:56.428Z,33.61
2023-05-01T17:08:23.187Z,34.88
2023-05-01T17:10:49.779Z,34.12
2023-05-01T17:13:16.376Z,34.34
2023-05-01T17:15:43.048Z,33.82
2023-05-01T17:18:09.786Z,34.08
2023-05-01T17:20:36.615Z,34.69
2023-05-01T17:23:03.290Z,35.55
2023-05-01T17:25:29.974Z,35.09
2023-05-01T17:27:56.678Z,35.29
2023-05-01T17:30:23.306Z,35.48
2023-05-01T17:32:50.059Z,35.54
2023-05-01T17:35:16.794Z,35.88
2023-05-01T17:37:43.503Z,36.15
2023-05-01T17:40:10.598Z,36.53
2023-05-01T17:42:37.254Z,36.68
2023-05-01T17:45:04.914Z,37.14
2023-05-01T17:47:31.598Z,37.36
2023-05-01T17:49:58.521Z,37.36
2023-05-01T17:52:25.253Z,37.41
2023-05-01T17:54:52.034Z,37.62
2023-05-01T17:57:18.650Z,37.90
2023-05-01T17:59:45.310Z,38.54
2023-05-01T18:02:12.165Z,38.45
2023-05-01T18:04:38.803Z,38.83
2023-05-01T18:07:05.600Z,39.67
2023-05-01T18:09:32.227Z,40.06
2023-05-01T18:11:58.851Z,41.56
2023-05-01T18:14:25.604Z,41.60
2023-05-01T18:16:52.275Z,41.28
2023-05-01T18:19:19.065Z,42.38
2023-05-01T18:21:45.742Z,42.75
2023-05-01T18:24:12.394Z,42.76
2023-05-01T18:26:39.112Z,41.68
2023-05-01T18:29:05.771Z,42.70
2023-05-01T18:31:32.583Z,42.41
2023-05-01T18:33:59.465Z,42.04
2023-05-01T18:36:26.094Z,42.27
2023-05-01T18:38:52.722Z,43.36
2023-05-01T18:41:19.344Z,43.15
2023-05-01T18:43:46.020Z,43.67
2023-05-01T18:46:12.796Z,45.22
2023-05-01T18:48:39.442Z,46.16
2023-05-01T18:51:08.980Z,45.84
2023-05-01T18:53:36.289Z,46.81
2023-05-01T18:56:03.030Z,46.41
2023-05-01T18:58:29.792Z,45.84
2023-05-01T19:00:56.394Z,45.19
2023-05-01T19:03:23.098Z,45.99
2023-05-01T19:05:49.797Z,45.97
2023-05-01T19:08:16.560Z,46.74
2023-05-01T19:10:43.272Z,48.16
2023-05-01T19:13:09.957Z,48.25
2023-05-01T19:15:36.561Z,47.94
2023-05-01T19:18:03.350Z,47.21
2023-05-01T19:20:30.022Z,47.54
2023-05-01T19:22:56.690Z,47.31
2023-05-01T19:25:24.163Z,50.15
2023-05-01T19:27:50.860Z,48.12
2023-05-01T19:30:17.520Z,46.86
2023-05-01T19:32:45.581Z,47.07
2023-05-01T19:35:12.376Z,47.64
2023-05-01T19:37:39.151Z,48.91
2023-05-01T19:40:06.736Z,50.09
2023-05-01T19:42:33.458Z,49.96
2023-05-01T19:45:00.172Z,49.08
2023-05-01T19:47:26.952Z,48.93
2023-05-01T19:49:53.690Z,47.23
2023-05-01T19:52:20.430Z,48.16
2023-05-01T19:54:47.231Z,46.94
2023-05-01T19:57:14.041Z,47.67
2023-05-01T19:59:40.677Z,47.21
2023-05-01T20:02:07.419Z,47.65
2023-05-01T20:07:00.803Z,47.42
2023-05-01T20:09:27.468Z,46.65
2023-05-01T20:11:54.218Z,47.90
2023-05-01T20:14:20.909Z,50.03
2023-05-01T20:16:50.095Z,49.50
2023-05-01T20:19:16.787Z,49.26
2023-05-01T20:21:43.547Z,49.26
2023-05-01T20:24:10.172Z,50.99
2023-05-01T20:26:37.024Z,50.19
2023-05-01T20:29:03.668Z,50.84
2023-05-01T20:31:30.476Z,50.51
2023-05-01T20:33:57.107Z,50.66
2023-05-01T20:36:25.369Z,50.58
2023-05-01T20:38:52.194Z,50.28
2023-05-01T20:41:18.905Z,49.94
2023-05-01T20:43:45.559Z,48.67
2023-05-01T20:46:12.253Z,48.39
2023-05-01T20:48:38.978Z,50.77
2023-05-01T20:51:05.611Z,50.71
2023-05-01T20:53:32.317Z,50.55
2023-05-01T20:55:59.092Z,51.66
2023-05-01T20:58:25.785Z,51.51
2023-05-01T21:00:55.612Z,51.30
2023-05-01T21:03:22.518Z,49.81
2023-05-01T21:05:49.325Z,49.12
2023-05-01T21:08:16.058Z,48.58
2023-05-01T21:10:42.747Z,48.82
2023-05-01T21:13:09.417Z,48.04
2023-05-01T21:15:36.037Z,49.30
2023-05-01T21:18:02.785Z,50.40
2023-05-01T21:20:32.730Z,50.50
2023-05-01T21:23:00.483Z,50.12
2023-05-01T21:25:28.840Z,52.17
2023-05-01T21:27:56.411Z,53.36
2023-05-01T21:30:33.711Z,52.58
2023-05-01T21:33:21.311Z,52.60
2023-05-01T21:35:48.458Z,52.34
2023-05-01T21:38:16.161Z,52.42
2023-05-01T21:40:43.171Z,52.87
2023-05-01T21:43:09.974Z,51.75
2023-05-01T21:45:37.027Z,52.57
2023-05-01T21:48:03.823Z,50.96
2023-05-01T21:50:34.965Z,51.12
2023-05-01T21:53:02.213Z,51.83
2023-05-01T21:55:28.885Z,51.79
2023-05-01T21:57:55.550Z,51.87
2023-05-01T22:00:22.309Z,51.65
2023-05-01T22:02:50.337Z,50.63
2023-05-01T22:05:21.293Z,51.10
2023-05-01T22:07:48.876Z,51.78
2023-05-01T22:10:17.593Z,52.08
2023-05-01T22:12:45.156Z,51.13
2023-05-01T22:15:13.396Z,52.38
2023-05-01T22:17:40.834Z,51.90
2023-05-01T22:20:08.424Z,51.73
2023-05-01T22:22:36.050Z,52.36
2023-05-01T22:25:03.265Z,51.22
2023-05-01T22:27:30.193Z,51.15
2023-05-01T22:29:57.248Z,52.68
2023-05-01T22:32:24.357Z,52.90
2023-05-01T22:34:51.034Z,51.91
2023-05-01T22:37:17.885Z,53.03
2023-05-01T22:39:44.539Z,52.03
2023-05-01T22:42:11.198Z,52.16
2023-05-01T22:44:37.906Z,53.45
2023-05-01T22:47:04.563Z,53.00
2023-05-01T22:49:31.181Z,53.46
2023-05-01T22:51:58.574Z,52.99
2023-05-01T22:54:25.318Z,53.74
2023-05-01T22:56:52.110Z,53.25
2023-05-01T22:59:19.642Z,53.81
2023-05-01T23:01:46.455Z,54.08
2023-05-01T23:04:13.916Z,54.04
2023-05-01T23:06:41.086Z,54.68
2023-05-01T23:09:07.769Z,53.61
2023-05-01T23:11:34.851Z,54.09
2023-05-01T23:14:01.877Z,55.10
2023-05-01T23:16:36.355Z,54.85
2023-05-01T23:19:03.686Z,54.19
2023-05-01T23:21:30.475Z,54.62
2023-05-01T23:23:57.281Z,55.53
2023-05-01T23:26:25.950Z,55.33
2023-05-01T23:28:53.445Z,55.44
2023-05-01T23:31:25.509Z,55.08
2023-05-01T23:33:52.786Z,55.04
2023-05-01T23:36:20.425Z,55.77
2023-05-01T23:38:47.376Z,56.04
2023-05-01T23:41:14.919Z,55.74
2023-05-01T23:43:41.918Z,56.52
2023-05-01T23:46:08.765Z,56.89
2023-05-01T23:48:36.261Z,56.52
2023-05-01T23:51:03.522Z,56.97
2023-05-01T23:53:30.528Z,57.43
2023-05-01T23:55:57.314Z,57.64
2023-05-01T23:58:24.282Z,57.05
